Nulato, Alaska
Current Conditions -  °F | °C
As of 6:53 AM on Tuesday 21 Oct 2014 (Local Time) from PAKV Reporting Station
Overcast Overcast  
Wind Chill: -4°   Ceiling: 2000
Heat Index:   Visibility: 10mi
Dew Point: -5°   Wind: 9mph
Humidity: 69%   Direction: 40°NE
Pressure: 29.43"   Gusts: NA
Location:  64.72°N, 158.13°W
Report Text: PAKV 211453Z AUTO 04008KT 10SM OVC020 00/M05 A2943 RMK AO2 SLP970 T00001050 53015 TSNO
Loading
Personal Weather Stations






























Interactive Weather Map
Tropical Storm Tracking
New forecast layout! Learn more

10-Day Weather Forecast

Advertisements
Track Severe Weather on mobile